地図

経路データ

SID SEASON NUMBER BASIN SUBBASIN NAME ISO_TIME NATURE LAT LON WMO_WIND WMO_PRES WMO_AGENCY TRACK_TYPE DIST2LAND LANDFALL IFLAG USA_AGENCY USA_ATCF_ID USA_LAT USA_LON USA_RECORD USA_STATUS USA_WIND USA_PRES USA_SSHS USA_R34_NE USA_R34_SE USA_R34_SW USA_R34_NW USA_R50_NE USA_R50_SE USA_R50_SW USA_R50_NW USA_R64_NE USA_R64_SE USA_R64_SW USA_R64_NW USA_POCI USA_ROCI USA_RMW USA_EYE TOKYO_LAT TOKYO_LON TOKYO_GRADE TOKYO_WIND TOKYO_PRES TOKYO_R50_DIR TOKYO_R50_LONG TOKYO_R50_SHORT TOKYO_R30_DIR TOKYO_R30_LONG TOKYO_R30_SHORT TOKYO_LAND CMA_LAT CMA_LON CMA_CAT CMA_WIND CMA_PRES HKO_LAT HKO_LON HKO_CAT HKO_WIND HKO_PRES NEWDELHI_LAT NEWDELHI_LON NEWDELHI_GRADE NEWDELHI_WIND NEWDELHI_PRES NEWDELHI_CI NEWDELHI_DP NEWDELHI_POCI REUNION_LAT REUNION_LON REUNION_TYPE REUNION_WIND REUNION_PRES REUNION_TNUM REUNION_CI REUNION_RMW REUNION_R34_NE REUNION_R34_SE REUNION_R34_SW REUNION_R34_NW REUNION_R50_NE REUNION_R50_SE REUNION_R50_SW REUNION_R50_NW REUNION_R64_NE REUNION_R64_SE REUNION_R64_SW REUNION_R64_NW BOM_LAT BOM_LON BOM_TYPE BOM_WIND BOM_PRES BOM_TNUM BOM_CI BOM_RMW BOM_R34_NE BOM_R34_SE BOM_R34_SW BOM_R34_NW BOM_R50_NE BOM_R50_SE BOM_R50_SW BOM_R50_NW BOM_R64_NE BOM_R64_SE BOM_R64_SW BOM_R64_NW BOM_ROCI BOM_POCI BOM_EYE BOM_POS_METHOD BOM_PRES_METHOD NADI_LAT NADI_LON NADI_CAT NADI_WIND NADI_PRES WELLINGTON_LAT WELLINGTON_LON WELLINGTON_WIND WELLINGTON_PRES DS824_LAT DS824_LON DS824_STAGE DS824_WIND DS824_PRES TD9636_LAT TD9636_LON TD9636_STAGE TD9636_WIND TD9636_PRES TD9635_LAT TD9635_LON TD9635_WIND TD9635_PRES TD9635_ROCI NEUMANN_LAT NEUMANN_LON NEUMANN_CLASS NEUMANN_WIND NEUMANN_PRES MLC_LAT MLC_LON MLC_CLASS MLC_WIND MLC_PRES USA_GUST BOM_GUST BOM_GUST_PER REUNION_GUST REUNION_GUST_PER USA_SEAHGT USA_SEARAD_NE USA_SEARAD_SE USA_SEARAD_SW USA_SEARAD_NW STORM_SPEED STORM_DIR
1996283N12133 1996 95 WP MM BETH 1996-10-09 06:00:00 NR 12.0000 133.000 main 793 733 O_____________ jtwc_wp WP301996 12.0000 133.000 15 -1 15 302
1996283N12133 1996 95 WP MM BETH 1996-10-09 09:00:00 NR 12.4029 132.333 main 725 673 P_____________ WP301996 12.4029 132.333 15 -1 15 302
1996283N12133 1996 95 WP MM BETH 1996-10-09 12:00:00 NR 12.8000 131.700 main 673 626 O_____________ jtwc_wp WP301996 12.8000 131.700 15 -1 14 303
1996283N12133 1996 95 WP MM BETH 1996-10-09 15:00:00 NR 13.1798 131.127 main 618 572 P_____________ WP301996 13.1798 131.127 17 -1 13 303
1996283N12133 1996 95 WP MM BETH 1996-10-09 18:00:00 NR 13.5000 130.600 main 572 526 O_____________ jtwc_wp WP301996 13.5000 130.600 20 -1 12 299
1996283N12133 1996 95 WP MM BETH 1996-10-09 21:00:00 NR 13.7298 130.092 main 526 483 P_____________ WP301996 13.7298 130.092 20 -1 11 292
1996283N12133 1996 95 WP MM BETH 1996-10-10 00:00:00 NR 13.9000 129.600 main 483 439 O_____________ jtwc_wp WP301996 13.9000 129.600 20 -1 10 289
1996283N12133 1996 95 WP MM BETH 1996-10-10 03:00:00 NR 14.0574 129.100 main 444 403 P_____________ WP301996 14.0574 129.100 20 -1 10 287
1996283N12133 1996 95 WP MM BETH 1996-10-10 06:00:00 NR 14.2000 128.600 main 403 366 O_____________ jtwc_wp WP301996 14.2000 128.600 20 -1 10 287
1996283N12133 1996 95 WP MM BETH 1996-10-10 09:00:00 NR 14.3499 128.100 main 366 342 P_____________ WP301996 14.3499 128.100 22 -1 10 287
1996283N12133 1996 95 WP MM BETH 1996-10-10 12:00:00 NR 14.5000 127.600 main 342 301 O_____________ jtwc_wp WP301996 14.5000 127.600 25 -1 10 288
1996283N12133 1996 95 WP MM BETH 1996-10-10 15:00:00 NR 14.6574 127.100 main 304 257 P_____________ WP301996 14.6574 127.100 25 -1 10 287
1996283N12133 1996 95 WP MM BETH 1996-10-10 18:00:00 NR 14.8000 126.600 main 257 214 O_____________ jtwc_wp WP301996 14.8000 126.600 25 -1 10 284
1996283N12133 1996 95 WP MM BETH 1996-10-10 21:00:00 NR 14.9074 126.100 main 214 178 P_____________ WP301996 14.9074 126.100 25 -1 10 282
1996283N12133 1996 95 WP MM BETH 1996-10-11 00:00:00 NR 15.0000 125.600 main 178 150 O_____________ jtwc_wp WP301996 15.0000 125.600 25 -1 10 281
1996283N12133 1996 95 WP MM BETH 1996-10-11 03:00:00 NR 15.0999 125.092 main 150 138 P_____________ WP301996 15.0999 125.092 25 -1 10 282
1996283N12133 1996 95 WP MM BETH 1996-10-11 06:00:00 NR 15.2000 124.600 main 138 134 O_____________ jtwc_wp WP301996 15.2000 124.600 25 -1 9 281
1996283N12133 1996 95 WP MM BETH 1996-10-11 09:00:00 NR 15.2848 124.150 main 145 138 P_____________ WP301996 15.2848 124.150 25 -1 14 279
1996283N12133 1996 95 WP MM BETH 1996-10-11 12:00:00 TS 15.4200 123.160 main 138 70 O_O___________ jtwc_wp WP301996 15.4000 123.700 25 -1 15.5000 121.000 1 23 1002 17 279
1996283N12133 1996 95 WP MM BETH 1996-10-11 15:00:00 TS 15.5399 122.399 main 70 21 P_P___________ WP301996 15.5774 123.207 25 -1 15.4649 120.782 1 26 1001 14 281
1996283N12133 1996 95 WP MM BETH 1996-10-11 18:00:00 TS 15.6714 121.757 main 21 0 O_O___________ jtwc_wp WP301996 15.8000 122.700 25 -1 15.5000 120.500 1 29 1000 12 285
1996283N12133 1996 95 WP MM BETH 1996-10-11 21:00:00 TS 15.8563 121.167 main 0 0 P_P___________ WP301996 16.0198 122.207 25 -1 15.6927 120.128 1 29 1000 11 301
1996283N12133 1996 95 WP MM BETH 1996-10-12 00:00:00 TS 16.2500 120.750 main 0 0 O_O___________ jtwc_wp WP301996 16.3000 121.700 25 -1 16.2000 119.800 1 29 1000 14 329
1996283N12133 1996 95 WP MM BETH 1996-10-12 03:00:00 TS 17.0086 120.432 main 10 0 P_P___________ WP301996 16.6924 121.158 30 -1 17.3248 119.707 1 29 1000 16 337
1996283N12133 1996 95 WP MM BETH 1996-10-12 06:00:00 TS 17.7000 120.100 main 23 23 O_O___________ jtwc_wp WP301996 17.1000 120.600 35 0 18.3000 119.600 1 29 1000 11 316
1996283N12133 1996 95 WP MM BETH 1996-10-12 09:00:00 TS 17.8089 119.621 main 77 77 P_P___________ WP301996 17.4225 120.035 42 0 18.1953 119.206 1 29 1000 9 279
1996283N12133 1996 95 WP MM BETH 1996-10-12 12:00:00 TS 17.8500 119.150 main 121 121 O_O___________ jtwc_wp WP301996 17.7000 119.500 50 0 18.0000 118.800 1 29 1000 9 306
1996283N12133 1996 95 WP MM BETH 1996-10-12 15:00:00 TS 18.3385 118.850 main 176 176 P_P___________ WP301996 17.9497 119.042 50 0 18.7272 118.658 1 29 1000 12 330
1996283N12133 1996 95 WP MM BETH 1996-10-12 18:00:00 TS 18.8500 118.550 main 218 218 O_O___________ jtwc_wp WP301996 18.2000 118.600 50 0 19.5000 118.500 1 29 1000 10 314
1996283N12133 1996 95 WP MM BETH 1996-10-12 21:00:00 TS 19.0414 118.078 main 271 271 P_P___________ WP301996 18.4925 118.100 47 0 19.5904 118.057 1 29 1000 9 288
1996283N12133 1996 95 WP MM BETH 1996-10-13 00:00:00 TS 19.1500 117.600 main 328 328 O_O___________ jtwc_wp WP301996 18.8000 117.600 45 0 19.5000 117.600 1 29 1000 9 293
1996283N12133 1996 95 WP MM BETH 1996-10-13 03:00:00 TS 19.3824 117.238 main 374 368 P_P___________ WP301996 19.1299 117.128 45 0 19.6348 117.348 1 29 1000 8 306
1996283N12133 1996 95 WP MM BETH 1996-10-13 06:00:00 TS 19.6000 116.950 main 368 348 O_O___________ jtwc_wp WP301996 19.4000 116.700 45 0 19.8000 117.200 1 29 1000 6 306
1996283N12133 1996 95 WP MM BETH 1996-10-13 09:00:00 TS 19.7374 116.725 main 348 332 P_P___________ WP301996 19.5449 116.320 42 0 19.9298 117.130 1 29 1000 5 295
1996283N12133 1996 95 WP MM BETH 1996-10-13 12:00:00 TS 19.8000 116.500 main 332 326 O_O___________ jtwc_wp WP301996 19.6000 116.000 40 0 20.0000 117.000 1 29 1000 5 278
1996283N12133 1996 95 WP MM BETH 1996-10-13 15:00:00 TS 19.8049 116.201 main 326 319 P_P___________ WP301996 19.6299 115.742 40 0 19.9800 116.660 1 29 1000 6 265
1996283N12133 1996 95 WP MM BETH 1996-10-13 18:00:00 TS 19.7500 115.850 main 319 316 O_O___________ jtwc_wp WP301996 19.6000 115.500 40 0 19.9000 116.200 1 29 1000 7 259
1996283N12133 1996 95 WP MM BETH 1996-10-13 21:00:00 TS 19.6650 115.457 main 316 312 P_P___________ WP301996 19.5225 115.207 37 0 19.8075 115.707 1 29 1000 8 255
1996283N12133 1996 95 WP MM BETH 1996-10-14 00:00:00 TS 19.5500 115.050 main 313 315 O_O___________ jtwc_wp WP301996 19.4000 114.900 35 0 19.7000 115.200 1 29 1000 8 254
1996283N12133 1996 95 WP MM BETH 1996-10-14 03:00:00 TS 19.4437 114.664 main 326 315 P_P___________ WP301996 19.2724 114.600 35 0 19.6149 114.728 1 29 1000 8 251
1996283N12133 1996 95 WP MM BETH 1996-10-14 06:00:00 TS 19.3000 114.300 main 320 316 O_O___________ jtwc_wp WP301996 19.1000 114.300 35 0 19.5000 114.300 1 29 1000 7 242
1996283N12133 1996 95 WP MM BETH 1996-10-14 09:00:00 TS 19.1011 113.968 main 319 294 P_P___________ WP301996 18.8725 113.993 35 0 19.3298 113.943 1 29 1000 8 234
1996283N12133 1996 95 WP MM BETH 1996-10-14 12:00:00 TS 18.8500 113.650 main 294 266 O_O___________ jtwc_wp WP301996 18.6000 113.700 35 0 19.1000 113.600 1 29 1000 8 232
1996283N12133 1996 95 WP MM BETH 1996-10-14 15:00:00 TS 18.5951 113.295 main 266 252 P_P___________ WP301996 18.3225 113.435 32 -1 18.8677 113.155 1 29 1000 9 226
1996283N12133 1996 95 WP MM BETH 1996-10-14 18:00:00 TS 18.2500 113.000 main 255 255 O_O___________ jtwc_wp WP301996 18.0000 113.200 30 -1 18.5000 112.800 1 29 1000 10 206
1996283N12133 1996 95 WP MM BETH 1996-10-14 21:00:00 TS 17.7436 112.857 main 281 272 P_P___________ WP301996 17.6224 112.993 30 -1 17.8648 112.721 1 29 1000 11 193
1996283N12133 1996 95 WP MM BETH 1996-10-15 00:00:00 TS 17.2000 112.750 main 302 293 O_O___________ jtwc_wp WP301996 17.2000 112.800 30 -1 17.2000 112.700 1 29 1000 10 196
1996283N12133 1996 95 WP MM BETH 1996-10-15 03:00:00 TS 16.7413 112.561 main 323 315 P_P___________ WP301996 16.7500 112.608 30 -1 16.7326 112.515 1 29 1000 9 204
1996283N12133 1996 95 WP MM BETH 1996-10-15 06:00:00 TS 16.3429 112.357 main 342 335 O_O___________ jtwc_wp WP301996 16.3000 112.400 30 -1 16.4000 112.300 1 29 1000 9 208
1996283N12133 1996 95 WP MM BETH 1996-10-15 09:00:00 TS 15.9858 112.149 main 349 317 P_P___________ WP301996 15.8925 112.158 30 -1 16.1725 112.133 1 26 1002 9 210
1996283N12133 1996 95 WP MM BETH 1996-10-15 12:00:00 TS 15.6000 111.920 main 317 283 O_O___________ jtwc_wp WP301996 15.5000 111.900 30 -1 16.0000 112.000 1 23 1004 10 209
1996283N12133 1996 95 WP MM BETH 1996-10-15 15:00:00 NR 15.0925 111.635 main 272 243 P_____________ WP301996 15.0925 111.635 30 -1 1 10 209
1996283N12133 1996 95 WP MM BETH 1996-10-15 18:00:00 NR 14.7000 111.400 main 243 209 O_____________ jtwc_wp WP301996 14.7000 111.400 30 -1 9 207
1996283N12133 1996 95 WP MM BETH 1996-10-15 21:00:00 NR 14.3125 111.228 main 209 194 P_____________ WP301996 14.3125 111.228 30 -1 8 203
1996283N12133 1996 95 WP MM BETH 1996-10-16 00:00:00 NR 14.0000 111.100 main 194 183 O_____________ jtwc_wp WP301996 14.0000 111.100 30 -1 6 204
1996283N12133 1996 95 WP MM BETH 1996-10-16 03:00:00 NR 13.8050 110.993 main 183 173 P_____________ WP301996 13.8050 110.993 30 -1 4 213
1996283N12133 1996 95 WP MM BETH 1996-10-16 06:00:00 NR 13.7000 110.900 main 173 161 O_____________ jtwc_wp WP301996 13.7000 110.900 30 -1 3 226
1996283N12133 1996 95 WP MM BETH 1996-10-16 09:00:00 NR 13.6275 110.800 main 161 151 P_____________ WP301996 13.6275 110.800 30 -1 2 243
1996283N12133 1996 95 WP MM BETH 1996-10-16 12:00:00 NR 13.6000 110.700 main 151 141 O_____________ jtwc_wp WP301996 13.6000 110.700 30 -1 2 258
1996283N12133 1996 95 WP MM BETH 1996-10-16 15:00:00 NR 13.5850 110.600 main 141 130 P_____________ WP301996 13.5850 110.600 30 -1 2 270
1996283N12133 1996 95 WP MM BETH 1996-10-16 18:00:00 NR 13.6000 110.500 main 130 119 O_____________ jtwc_wp WP301996 13.6000 110.500 30 -1 2 287
1996283N12133 1996 95 WP MM BETH 1996-10-16 21:00:00 NR 13.6425 110.400 main 119 108 P_____________ WP301996 13.6425 110.400 27 -1 2 297
1996283N12133 1996 95 WP MM BETH 1996-10-17 00:00:00 NR 13.7000 110.300 main 108 97 O_____________ jtwc_wp WP301996 13.7000 110.300 25 -1 2 299
1996283N12133 1996 95 WP MM BETH 1996-10-17 03:00:00 NR 13.7500 110.200 main 97 86 P_____________ WP301996 13.7500 110.200 25 -1 2 297
1996283N12133 1996 95 WP MM BETH 1996-10-17 06:00:00 NR 13.8000 110.100 main 86 75 O_____________ jtwc_wp WP301996 13.8000 110.100 25 -1 2 297
1996283N12133 1996 95 WP MM BETH 1996-10-17 09:00:00 NR 13.8500 110.000 main 75 64 P_____________ WP301996 13.8500 110.000 22 -1 2 297
1996283N12133 1996 95 WP MM BETH 1996-10-17 12:00:00 NR 13.9000 109.900 main 64 O_____________ jtwc_wp WP301996 13.9000 109.900 20 -1 2 297

デジタル台風データ・検索

IBTrACS Databaseについて

本データベースは、米国NOAAが公開する1842年以降の世界の熱帯低気圧のベストトラックデータアーカイブInternational Best Track Archive for Climate Stewardship (IBTrACS)を、ウェブで閲覧しやすい形式に変換したものです。

最終更新日:2021-10-21